Time,TemperatureF,DewpointF,PressureIn,WindDirection,WindDirectionDegrees,WindSpeedMPH,WindSpeedGustMPH,Humidity,HourlyPrecipIn,Conditions,Clouds,dailyrainin,SoftwareType,DateUTC
2013-05-05 00:00:00,49.0,42.4,30.12,WNW,293,1.0,7.0,78,0.00,RA,,0.00,WeatherDisplay:10.37,2013-05-04 23:00:00,
2013-05-05 00:05:00,48.9,42.7,30.12,WNW,293,2.0,6.0,79,0.00,RA,,0.00,WeatherDisplay:10.37,2013-05-04 23:05:00,
2013-05-05 00:10:00,48.7,42.5,30.12,WNW,290,3.0,7.0,79,0.00,,,0.00,WeatherDisplay:10.37,2013-05-04 23:10:00,
2013-05-05 00:15:00,48.5,42.3,30.12,WNW,297,2.0,6.0,79,0.00,,,0.00,WeatherDisplay:10.37,2013-05-04 23:15:00,
2013-05-05 00:20:00,48.3,42.1,30.12,WNW,298,1.0,6.0,79,0.00,,,0.00,WeatherDisplay:10.37,2013-05-04 23:20:00,
2013-05-05 00:25:00,48.1,41.9,30.12,WNW,298,1.0,4.0,79,0.00,,,0.00,WeatherDisplay:10.37,2013-05-04 23:25:00,
2013-05-05 00:30:00,48.0,42.1,30.12,WNW,298,1.0,4.0,80,0.00,,,0.00,WeatherDisplay:10.37,2013-05-04 23:30:00,
2013-05-05 00:40:00,47.7,41.8,30.13,WNW,286,2.0,6.0,80,0.00,,,0.00,WeatherDisplay:10.37,2013-05-04 23:40:00,
2013-05-05 00:45:00,47.6,42.0,30.13,West,281,3.0,7.0,81,0.00,,,0.00,WeatherDisplay:10.37,2013-05-04 23:45:00,
2013-05-05 00:50:00,47.4,41.9,30.12,WNW,284,2.0,7.0,81,0.00,,,0.00,WeatherDisplay:10.37,2013-05-04 23:50:00,
2013-05-05 00:55:00,47.3,42.1,30.12,WNW,284,2.0,7.0,82,0.00,,,0.00,WeatherDisplay:10.37,2013-05-04 23:55:00,
2013-05-05 01:00:00,47.3,42.1,30.12,West,280,1.0,6.0,82,0.00,,,0.00,WeatherDisplay:10.37,2013-05-05 00:00:00,
2013-05-05 01:05:00,47.3,42.1,30.13,West,273,1.0,4.0,82,0.00,,,0.00,WeatherDisplay:10.37,2013-05-05 00:05:00,
2013-05-05 01:10:00,47.2,42.0,30.13,West,272,1.0,3.0,82,0.00,,,0.00,WeatherDisplay:10.37,2013-05-05 00:10:00,
2013-05-05 01:15:00,47.2,42.0,30.13,West,273,1.0,3.0,82,0.00,,,0.00,WeatherDisplay:10.37,2013-05-05 00:15:00,
2013-05-05 01:20:00,47.2,42.0,30.13,West,273,0.0,3.0,82,0.00,,,0.00,WeatherDisplay:10.37,2013-05-05 00:20:00,
2013-05-05 01:25:00,47.2,42.0,30.13,West,273,2.0,4.0,82,0.00,,,0.00,WeatherDisplay:10.37,2013-05-05 00:25:00,
2013-05-05 01:30:00,47.1,41.9,30.13,West,273,1.0,4.0,82,0.00,,,0.00,WeatherDisplay:10.37,2013-05-05 00:30:00,
2013-05-05 01:35:00,47.0,41.8,30.13,West,273,0.0,2.0,82,0.00,,,0.00,WeatherDisplay:10.37,2013-05-05 00:35:00,
2013-05-05 01:40:00,46.9,41.7,30.13,West,273,0.0,0.0,82,0.00,,,0.00,WeatherDisplay:10.37,2013-05-05 00:40:00,
2013-05-05 01:45:00,46.7,41.8,30.13,West,273,0.0,2.0,83,0.00,,,0.00,WeatherDisplay:10.37,2013-05-05 00:45:00,
2013-05-05 01:50:00,46.5,41.3,30.13,West,273,0.0,1.0,82,0.00,,,0.00,WeatherDisplay:10.37,2013-05-05 00:50:00,
2013-05-05 01:55:00,46.3,41.4,30.13,West,273,0.0,1.0,83,0.00,,,0.00,WeatherDisplay:10.37,2013-05-05 00:55:00,
2013-05-05 02:00:00,46.0,41.1,30.13,West,273,0.0,0.0,83,0.00,,,0.00,WeatherDisplay:10.37,2013-05-05 01:00:00,
2013-05-05 02:10:00,45.4,40.8,30.13,West,273,0.0,3.0,84,0.00,,,0.00,WeatherDisplay:10.37,2013-05-05 01:10:00,
2013-05-05 02:15:00,44.9,40.4,30.13,West,273,0.0,1.0,84,0.00,,,0.00,WeatherDisplay:10.37,2013-05-05 01:15:00,
2013-05-05 02:20:00,44.4,39.9,30.13,West,273,0.0,0.0,84,0.00,,,0.00,WeatherDisplay:10.37,2013-05-05 01:20:00,
2013-05-05 02:25:00,44.0,39.8,30.13,West,273,0.0,2.0,85,0.00,,,0.00,WeatherDisplay:10.37,2013-05-05 01:25:00,
2013-05-05 02:30:00,43.5,39.3,30.13,West,273,0.0,2.0,85,0.00,,,0.00,WeatherDisplay:10.37,2013-05-05 01:30:00,
2013-05-05 02:40:00,42.7,38.8,30.13,West,273,0.0,0.0,86,0.00,,,0.00,WeatherDisplay:10.37,2013-05-05 01:40:00,
2013-05-05 02:45:00,42.3,38.7,30.13,West,273,0.0,0.0,87,0.00,,,0.00,WeatherDisplay:10.37,2013-05-05 01:45:00,
2013-05-05 02:50:00,42.0,38.4,30.13,West,273,0.0,0.0,87,0.00,,,0.00,WeatherDisplay:10.37,2013-05-05 01:50:00,
2013-05-05 02:55:00,41.5,37.7,30.13,West,273,0.0,1.0,86,0.00,,,0.00,WeatherDisplay:10.37,2013-05-05 01:55:00,
2013-05-05 03:00:00,41.1,37.5,30.13,West,273,0.0,0.0,87,0.00,,,0.00,WeatherDisplay:10.37,2013-05-05 02:00:00,
2013-05-05 03:05:00,40.8,37.5,30.13,West,273,0.0,0.0,88,0.00,,,0.00,WeatherDisplay:10.37,2013-05-05 02:05:00,
2013-05-05 03:10:00,40.5,37.2,30.13,West,273,0.0,0.0,88,0.00,,,0.00,WeatherDisplay:10.37,2013-05-05 02:10:00,
2013-05-05 03:15:00,40.3,37.0,30.13,West,273,0.0,0.0,88,0.00,,,0.00,WeatherDisplay:10.37,2013-05-05 02:15:00,
2013-05-05 03:20:00,40.0,36.8,30.13,West,273,0.0,0.0,88,0.00,,,0.00,WeatherDisplay:10.37,2013-05-05 02:20:00,
2013-05-05 03:25:00,39.7,36.7,30.13,West,273,0.0,1.0,89,0.00,,,0.00,WeatherDisplay:10.37,2013-05-05 02:25:00,
2013-05-05 03:30:00,39.5,36.8,30.13,West,273,0.0,1.0,90,0.00,,,0.00,WeatherDisplay:10.37,2013-05-05 02:30:00,
2013-05-05 03:40:00,39.3,36.9,30.13,West,273,0.0,2.0,91,0.00,,,0.00,WeatherDisplay:10.37,2013-05-05 02:40:00,
2013-05-05 03:45:00,39.4,37.3,30.13,West,273,0.0,1.0,92,0.00,,,0.00,WeatherDisplay:10.37,2013-05-05 02:45:00,
2013-05-05 03:50:00,39.5,37.4,30.13,West,273,0.0,1.0,92,0.00,,,0.00,WeatherDisplay:10.37,2013-05-05 02:50:00,
2013-05-05 03:55:00,39.5,37.4,30.13,West,273,0.0,1.0,92,0.00,,,0.00,WeatherDisplay:10.37,2013-05-05 02:55:00,
2013-05-05 04:00:00,39.3,36.9,30.13,West,273,0.0,2.0,91,0.00,,,0.00,WeatherDisplay:10.37,2013-05-05 03:00:00,
2013-05-05 04:10:00,39.0,36.9,30.14,West,273,0.0,1.0,92,0.00,,,0.00,WeatherDisplay:10.37,2013-05-05 03:10:00,
2013-05-05 04:15:00,39.1,37.3,30.14,West,273,0.0,0.0,93,0.00,,,0.00,WeatherDisplay:10.37,2013-05-05 03:15:00,
2013-05-05 04:20:00,39.7,38.1,30.14,West,273,0.0,2.0,94,0.00,,,0.00,WeatherDisplay:10.37,2013-05-05 03:20:00,
2013-05-05 04:25:00,40.2,38.9,30.14,West,273,1.0,2.0,95,0.00,,,0.00,WeatherDisplay:10.37,2013-05-05 03:25:00,
2013-05-05 04:30:00,40.7,39.4,30.14,West,273,0.0,2.0,95,0.00,,,0.00,WeatherDisplay:10.37,2013-05-05 03:30:00,
2013-05-05 04:35:00,40.9,39.3,30.14,West,273,0.0,1.0,94,0.00,,,0.00,WeatherDisplay:10.37,2013-05-05 03:35:00,
2013-05-05 04:40:00,40.7,39.1,30.14,West,273,0.0,2.0,94,0.00,,,0.00,WeatherDisplay:10.37,2013-05-05 03:40:00,
2013-05-05 04:45:00,41.0,39.4,30.14,West,273,1.0,3.0,94,0.00,,,0.00,WeatherDisplay:10.37,2013-05-05 03:45:00,
2013-05-05 04:50:00,41.6,40.2,30.14,West,273,0.0,2.0,95,0.00,,,0.00,WeatherDisplay:10.37,2013-05-05 03:50:00,
2013-05-05 04:55:00,42.1,40.7,30.14,West,273,0.0,1.0,95,0.00,,,0.00,WeatherDisplay:10.37,2013-05-05 03:55:00,
2013-05-05 05:00:00,42.5,41.1,30.14,West,273,0.0,0.0,95,0.00,,,0.00,WeatherDisplay:10.37,2013-05-05 04:00:00,
2013-05-05 05:05:00,42.8,41.4,30.14,West,273,0.0,0.0,95,0.00,,,0.00,WeatherDisplay:10.37,2013-05-05 04:05:00,
2013-05-05 05:10:00,43.1,41.7,30.14,West,273,0.0,0.0,95,0.00,,,0.00,WeatherDisplay:10.37,2013-05-05 04:10:00,
2013-05-05 05:15:00,43.3,42.0,30.14,West,273,0.0,0.0,95,0.00,,,0.00,WeatherDisplay:10.37,2013-05-05 04:15:00,
2013-05-05 05:20:00,43.7,42.3,30.14,West,273,0.0,2.0,95,0.00,,,0.00,WeatherDisplay:10.37,2013-05-05 04:20:00,
2013-05-05 05:25:00,43.9,42.6,30.14,West,273,0.0,1.0,95,0.00,,,0.00,WeatherDisplay:10.37,2013-05-05 04:25:00,
2013-05-05 05:30:00,44.2,42.9,30.14,West,273,0.0,1.0,95,0.00,,,0.00,WeatherDisplay:10.37,2013-05-05 04:30:00,
2013-05-05 05:40:00,44.6,43.2,30.15,West,273,0.0,1.0,95,0.00,,,0.00,WeatherDisplay:10.37,2013-05-05 04:40:00,
2013-05-05 05:45:00,44.7,43.4,30.15,West,273,0.0,0.0,95,0.00,,,0.00,WeatherDisplay:10.37,2013-05-05 04:45:00,
2013-05-05 05:50:00,44.9,43.6,30.15,West,273,0.0,0.0,95,0.00,,,0.00,WeatherDisplay:10.37,2013-05-05 04:50:00,
2013-05-05 05:55:00,45.0,43.7,30.15,West,273,0.0,0.0,95,0.00,,,0.00,WeatherDisplay:10.37,2013-05-05 04:55:00,
2013-05-05 06:00:00,45.2,43.9,30.15,West,273,1.0,2.0,95,0.00,,,0.00,WeatherDisplay:10.37,2013-05-05 05:00:00,
2013-05-05 06:05:00,45.5,44.2,30.15,West,273,1.0,3.0,95,0.00,,,0.00,WeatherDisplay:10.37,2013-05-05 05:05:00,
2013-05-05 06:10:00,45.8,44.4,30.15,West,273,0.0,3.0,95,0.00,,,0.00,WeatherDisplay:10.37,2013-05-05 05:10:00,
2013-05-05 06:15:00,46.1,44.5,30.15,West,273,0.0,1.0,94,0.00,,,0.00,WeatherDisplay:10.37,2013-05-05 05:15:00,
2013-05-05 06:20:00,46.4,44.8,30.15,West,273,0.0,2.0,94,0.00,,,0.00,WeatherDisplay:10.37,2013-05-05 05:20:00,
2013-05-05 06:25:00,46.7,45.1,30.15,West,272,2.0,4.0,94,0.00,,,0.00,WeatherDisplay:10.37,2013-05-05 05:25:00,
2013-05-05 06:30:00,47.0,45.4,30.15,West,272,0.0,3.0,94,0.00,,,0.00,WeatherDisplay:10.37,2013-05-05 05:30:00,
2013-05-05 06:35:00,47.3,45.6,30.15,West,272,0.0,0.0,94,0.00,,,0.00,WeatherDisplay:10.37,2013-05-05 05:35:00,
2013-05-05 06:40:00,47.4,45.8,30.15,West,272,0.0,1.0,94,0.00,,,0.00,WeatherDisplay:10.37,2013-05-05 05:40:00,
2013-05-05 06:45:00,47.7,46.1,30.15,West,272,0.0,2.0,94,0.00,,,0.00,WeatherDisplay:10.37,2013-05-05 05:45:00,
2013-05-05 06:50:00,47.9,46.3,30.16,West,272,0.0,3.0,94,0.00,,,0.00,WeatherDisplay:10.37,2013-05-05 05:50:00,
2013-05-05 06:55:00,48.3,46.7,30.16,West,272,1.0,4.0,94,0.00,,,0.00,WeatherDisplay:10.37,2013-05-05 05:55:00,
2013-05-05 07:00:00,48.6,46.7,30.16,West,272,1.0,4.0,93,0.00,,,0.00,WeatherDisplay:10.37,2013-05-05 06:00:00,
2013-05-05 07:10:00,48.9,46.4,30.16,West,272,3.0,5.0,91,0.00,,,0.00,WeatherDisplay:10.37,2013-05-05 06:10:00,
2013-05-05 07:15:00,49.1,46.6,30.16,West,271,1.0,3.0,91,0.00,,,0.00,WeatherDisplay:10.37,2013-05-05 06:15:00,
2013-05-05 07:20:00,49.4,46.6,30.16,West,271,0.0,2.0,90,0.00,,,0.00,WeatherDisplay:10.37,2013-05-05 06:20:00,
2013-05-05 07:25:00,49.6,46.8,30.16,West,271,0.0,3.0,90,0.00,,,0.00,WeatherDisplay:10.37,2013-05-05 06:25:00,
2013-05-05 07:30:00,49.9,47.1,30.16,West,271,2.0,4.0,90,0.00,,,0.00,WeatherDisplay:10.37,2013-05-05 06:30:00,
2013-05-05 07:40:00,50.5,47.7,30.17,West,272,1.0,4.0,90,0.00,,,0.00,WeatherDisplay:10.37,2013-05-05 06:40:00,
2013-05-05 07:45:00,50.8,47.7,30.17,West,272,3.0,5.0,89,0.00,,,0.00,WeatherDisplay:10.37,2013-05-05 06:45:00,
2013-05-05 07:50:00,51.2,48.4,30.16,West,269,2.0,7.0,90,0.00,,,0.00,WeatherDisplay:10.37,2013-05-05 06:50:00,
2013-05-05 07:55:00,51.5,48.1,30.16,West,270,1.0,5.0,88,0.00,,,0.00,WeatherDisplay:10.37,2013-05-05 06:55:00,
2013-05-05 08:00:00,51.9,48.4,30.16,West,271,1.0,3.0,88,0.00,,,0.00,WeatherDisplay:10.37,2013-05-05 07:00:00,
2013-05-05 08:10:00,52.4,48.3,30.16,West,279,5.0,7.0,86,0.00,,,0.00,WeatherDisplay:10.37,2013-05-05 07:10:00,
2013-05-05 08:15:00,52.7,48.6,30.17,WNW,283,3.0,9.0,86,0.00,,,0.00,WeatherDisplay:10.37,2013-05-05 07:15:00,
2013-05-05 08:20:00,53.0,48.6,30.17,West,281,6.0,9.0,85,0.00,,,0.00,WeatherDisplay:10.37,2013-05-05 07:20:00,
2013-05-05 08:25:00,53.2,48.5,30.17,West,280,3.0,12.0,84,0.00,,,0.00,WeatherDisplay:10.37,2013-05-05 07:25:00,
2013-05-05 08:30:00,53.4,49.0,30.17,West,281,3.0,6.0,85,0.00,,,0.00,WeatherDisplay:10.37,2013-05-05 07:30:00,
2013-05-05 08:35:00,53.6,48.9,30.17,WNW,291,3.0,6.0,84,0.00,,,0.00,WeatherDisplay:10.37,2013-05-05 07:35:00,
2013-05-05 08:40:00,53.9,49.2,30.17,WNW,298,2.0,7.0,84,0.00,,,0.00,WeatherDisplay:10.37,2013-05-05 07:40:00,
2013-05-05 08:45:00,54.1,49.4,30.17,WNW,293,5.0,12.0,84,0.00,,,0.00,WeatherDisplay:10.37,2013-05-05 07:45:00,
2013-05-05 08:50:00,54.2,49.2,30.17,WNW,299,3.0,12.0,83,0.00,,,0.00,WeatherDisplay:10.37,2013-05-05 07:50:00,
2013-05-05 08:55:00,54.4,49.3,30.17,WNW,301,3.0,9.0,83,0.00,,,0.00,WeatherDisplay:10.37,2013-05-05 07:55:00,
2013-05-05 09:00:00,54.6,49.5,30.17,WNW,289,5.0,10.0,83,0.00,,,0.00,WeatherDisplay:10.37,2013-05-05 08:00:00,
2013-05-05 09:10:00,55.2,49.8,30.17,WNW,291,5.0,6.0,82,0.00,,,0.00,WeatherDisplay:10.37,2013-05-05 08:10:00,
2013-05-05 09:15:00,55.5,50.1,30.17,WNW,289,3.0,6.0,82,0.00,,,0.00,WeatherDisplay:10.37,2013-05-05 08:15:00,
2013-05-05 09:20:00,55.6,49.9,30.17,West,280,3.0,9.0,81,0.00,,,0.00,WeatherDisplay:10.37,2013-05-05 08:20:00,
2013-05-05 09:25:00,55.7,49.6,30.17,West,272,5.0,7.0,80,0.00,,,0.00,WeatherDisplay:10.37,2013-05-05 08:25:00,
2013-05-05 09:30:00,55.7,49.6,30.17,West,271,2.0,9.0,80,0.00,,,0.00,WeatherDisplay:10.37,2013-05-05 08:30:00,
2013-05-05 09:40:00,56.0,49.9,30.17,WNW,283,2.0,9.0,80,0.00,,,0.00,WeatherDisplay:10.37,2013-05-05 08:40:00,
2013-05-05 09:45:00,56.3,50.2,30.17,WNW,285,3.0,7.0,80,0.00,,,0.00,WeatherDisplay:10.37,2013-05-05 08:45:00,
2013-05-05 09:50:00,56.5,49.7,30.18,West,264,2.0,7.0,78,0.00,,,0.00,WeatherDisplay:10.37,2013-05-05 08:50:00,
2013-05-05 09:55:00,56.6,50.2,30.18,West,270,2.0,6.0,79,0.00,,,0.00,WeatherDisplay:10.37,2013-05-05 08:55:00,
2013-05-05 10:00:00,56.7,50.0,30.18,West,281,3.0,6.0,78,0.00,,,0.00,WeatherDisplay:10.37,2013-05-05 09:00:00,
2013-05-05 10:05:00,56.8,50.0,30.18,West,267,1.0,6.0,78,0.00,,,0.00,WeatherDisplay:10.37,2013-05-05 09:05:00,
2013-05-05 10:10:00,56.8,50.4,30.18,West,274,2.0,6.0,79,0.00,,,0.00,WeatherDisplay:10.37,2013-05-05 09:10:00,
2013-05-05 10:15:00,56.9,50.5,30.18,WNW,286,6.0,8.0,79,0.00,,,0.00,WeatherDisplay:10.37,2013-05-05 09:15:00,
2013-05-05 10:20:00,57.0,50.2,30.18,West,279,1.0,7.0,78,0.00,,,0.00,WeatherDisplay:10.37,2013-05-05 09:20:00,
2013-05-05 10:25:00,57.2,50.7,30.18,West,274,2.0,7.0,79,0.00,,,0.00,WeatherDisplay:10.37,2013-05-05 09:25:00,
2013-05-05 10:30:00,57.3,50.5,30.18,West,275,2.0,7.0,78,0.00,,,0.00,WeatherDisplay:10.37,2013-05-05 09:30:00,
2013-05-05 10:40:00,57.6,50.7,30.19,WNW,289,5.0,7.0,78,0.00,,,0.00,WeatherDisplay:10.37,2013-05-05 09:40:00,
2013-05-05 10:45:00,57.8,50.3,30.19,WNW,287,3.0,9.0,76,0.00,,,0.00,WeatherDisplay:10.37,2013-05-05 09:45:00,
2013-05-05 10:50:00,57.9,50.7,30.19,WNW,282,3.0,10.0,77,0.00,,,0.00,WeatherDisplay:10.37,2013-05-05 09:50:00,
2013-05-05 10:55:00,58.1,50.6,30.19,WNW,284,2.0,6.0,76,0.00,,,0.00,WeatherDisplay:10.37,2013-05-05 09:55:00,
2013-05-05 11:00:00,58.1,50.3,30.19,WNW,283,2.0,9.0,75,0.00,,,0.00,WeatherDisplay:10.37,2013-05-05 10:00:00,
2013-05-05 11:05:00,58.2,50.3,30.19,WNW,282,2.0,5.0,75,0.00,,,0.00,WeatherDisplay:10.37,2013-05-05 10:05:00,
2013-05-05 11:10:00,58.3,50.8,30.19,WNW,284,3.0,6.0,76,0.00,,,0.00,WeatherDisplay:10.37,2013-05-05 10:10:00,
2013-05-05 11:15:00,58.5,50.9,30.19,WNW,285,2.0,7.0,76,0.00,,,0.00,WeatherDisplay:10.37,2013-05-05 10:15:00,
2013-05-05 11:20:00,58.5,50.6,30.19,WNW,283,2.0,6.0,75,0.00,,,0.00,WeatherDisplay:10.37,2013-05-05 10:20:00,
2013-05-05 11:25:00,58.4,50.5,30.19,West,279,1.0,4.0,75,0.00,,,0.00,WeatherDisplay:10.37,2013-05-05 10:25:00,
2013-05-05 11:30:00,58.3,50.4,30.19,West,272,1.0,6.0,75,0.00,,,0.00,WeatherDisplay:10.37,2013-05-05 10:30:00,
2013-05-05 11:40:00,58.4,50.5,30.19,West,278,3.0,9.0,75,0.00,,,0.00,WeatherDisplay:10.37,2013-05-05 10:40:00,
2013-05-05 11:45:00,58.6,50.3,30.19,West,277,0.0,4.0,74,0.00,,,0.00,WeatherDisplay:10.37,2013-05-05 10:45:00,
2013-05-05 11:50:00,58.5,50.2,30.19,West,275,1.0,3.0,74,0.00,,,0.00,WeatherDisplay:10.37,2013-05-05 10:50:00,
2013-05-05 11:55:00,58.4,50.5,30.19,West,274,2.0,4.0,75,0.00,,,0.00,WeatherDisplay:10.37,2013-05-05 10:55:00,
2013-05-05 12:00:00,58.5,51.0,30.19,West,271,3.0,7.0,76,0.00,,,0.00,WeatherDisplay:10.37,2013-05-05 11:00:00,
2013-05-05 12:05:00,58.9,51.0,30.18,WSW,251,5.0,7.0,75,0.00,,,0.00,WeatherDisplay:10.37,2013-05-05 11:05:00,
2013-05-05 12:10:00,59.3,51.4,30.18,SSW,211,1.0,7.0,75,0.00,,,0.00,WeatherDisplay:10.37,2013-05-05 11:10:00,
2013-05-05 12:15:00,59.8,51.8,30.18,SSW,213,1.0,7.0,75,0.00,,,0.00,WeatherDisplay:10.37,2013-05-05 11:15:00,
2013-05-05 12:20:00,60.6,52.2,30.18,SW,228,3.0,8.0,74,0.00,,,0.00,WeatherDisplay:10.37,2013-05-05 11:20:00,
2013-05-05 12:25:00,60.9,51.8,30.18,SW,230,2.0,9.0,72,0.00,,,0.00,WeatherDisplay:10.37,2013-05-05 11:25:00,
2013-05-05 12:30:00,60.9,51.8,30.18,SSW,208,0.0,9.0,72,0.00,,,0.00,WeatherDisplay:10.37,2013-05-05 11:30:00,
2013-05-05 12:35:00,61.2,52.1,30.18,SSW,201,1.0,5.0,72,0.00,,,0.00,WeatherDisplay:10.37,2013-05-05 11:35:00,
2013-05-05 12:40:00,61.4,51.5,30.18,SSW,213,1.0,4.0,70,0.00,,,0.00,WeatherDisplay:10.37,2013-05-05 11:40:00,
2013-05-05 12:45:00,61.4,51.1,30.18,SSW,210,2.0,4.0,69,0.00,,,0.00,WeatherDisplay:10.37,2013-05-05 11:45:00,
2013-05-05 12:50:00,61.2,52.5,30.18,West,269,3.0,10.0,73,0.00,,,0.00,WeatherDisplay:10.37,2013-05-05 11:50:00,
2013-05-05 12:55:00,61.2,51.4,30.18,West,277,3.0,6.0,70,0.00,,,0.00,WeatherDisplay:10.37,2013-05-05 11:55:00,
2013-05-05 13:00:00,61.2,50.9,30.18,West,276,1.0,5.0,69,0.00,,,0.00,WeatherDisplay:10.37,2013-05-05 12:00:00,
2013-05-05 13:05:00,61.2,51.3,30.17,WNW,282,0.0,2.0,70,0.00,,,0.00,WeatherDisplay:10.37,2013-05-05 12:05:00,
2013-05-05 13:10:00,61.2,51.7,30.17,WNW,282,0.0,2.0,71,0.00,,,0.00,WeatherDisplay:10.37,2013-05-05 12:10:00,
2013-05-05 13:15:00,61.1,51.2,30.17,West,267,3.0,6.0,70,0.00,,,0.00,WeatherDisplay:10.37,2013-05-05 12:15:00,
2013-05-05 13:20:00,61.2,51.3,30.17,WSW,240,2.0,7.0,70,0.00,,,0.00,WeatherDisplay:10.37,2013-05-05 12:20:00,
2013-05-05 13:25:00,61.3,51.0,30.17,SW,236,3.0,10.0,69,0.00,,,0.00,WeatherDisplay:10.37,2013-05-05 12:25:00,
2013-05-05 13:30:00,61.4,51.1,30.17,SW,232,2.0,7.0,69,0.00,,,0.00,WeatherDisplay:10.37,2013-05-05 12:30:00,
2013-05-05 13:40:00,61.5,51.2,30.17,SW,219,3.0,6.0,69,0.00,,,0.00,WeatherDisplay:10.37,2013-05-05 12:40:00,
2013-05-05 13:45:00,61.6,51.3,30.17,SSW,211,3.0,5.0,69,0.00,,,0.00,WeatherDisplay:10.37,2013-05-05 12:45:00,
2013-05-05 13:50:00,61.5,51.2,30.17,SW,221,3.0,5.0,69,0.00,,,0.00,WeatherDisplay:10.37,2013-05-05 12:50:00,
2013-05-05 13:55:00,61.6,50.5,30.17,WSW,244,1.0,5.0,67,0.00,,,0.00,WeatherDisplay:10.37,2013-05-05 12:55:00,
2013-05-05 14:00:00,61.9,52.0,30.17,WSW,257,3.0,6.0,70,0.00,,,0.00,WeatherDisplay:10.37,2013-05-05 13:00:00,
2013-05-05 14:05:00,62.3,52.0,30.16,SW,221,5.0,10.0,69,0.00,,,0.00,WeatherDisplay:10.37,2013-05-05 13:05:00,
2013-05-05 14:10:00,62.3,52.4,30.16,South,186,2.0,10.0,70,0.00,,,0.00,WeatherDisplay:10.37,2013-05-05 13:10:00,
2013-05-05 14:15:00,62.3,52.8,30.16,South,177,3.0,9.0,71,0.00,,,0.00,WeatherDisplay:10.37,2013-05-05 13:15:00,
2013-05-05 14:20:00,62.5,52.6,30.16,South,178,3.0,6.0,70,0.00,,,0.00,WeatherDisplay:10.37,2013-05-05 13:20:00,
2013-05-05 14:25:00,62.8,52.1,30.16,SSW,200,3.0,10.0,68,0.00,,,0.00,WeatherDisplay:10.37,2013-05-05 13:25:00,
2013-05-05 14:30:00,63.1,51.1,30.16,WSW,240,1.0,7.0,65,0.00,,,0.00,WeatherDisplay:10.37,2013-05-05 13:30:00,
2013-05-05 14:40:00,63.5,51.9,30.16,WSW,254,2.0,6.0,66,0.00,,,0.00,WeatherDisplay:10.37,2013-05-05 13:40:00,
2013-05-05 14:45:00,63.7,52.1,30.16,WSW,253,1.0,4.0,66,0.00,,,0.00,WeatherDisplay:10.37,2013-05-05 13:45:00,
2013-05-05 14:50:00,63.7,51.7,30.15,West,263,2.0,7.0,65,0.00,,,0.00,WeatherDisplay:10.37,2013-05-05 13:50:00,
2013-05-05 14:55:00,63.8,51.4,30.15,West,260,5.0,10.0,64,0.00,,,0.00,WeatherDisplay:10.37,2013-05-05 13:55:00,
2013-05-05 15:00:00,63.9,51.5,30.15,WSW,256,1.0,5.0,64,0.00,,,0.00,WeatherDisplay:10.37,2013-05-05 14:00:00,
2013-05-05 15:05:00,64.0,51.1,30.15,WSW,248,6.0,12.0,63,0.00,,,0.00,WeatherDisplay:10.37,2013-05-05 14:05:00,
2013-05-05 15:10:00,64.1,51.7,30.15,SW,227,3.0,7.0,64,0.00,,,0.00,WeatherDisplay:10.37,2013-05-05 14:10:00,
2013-05-05 15:15:00,64.3,51.4,30.15,SW,224,5.0,10.0,63,0.00,,,0.00,WeatherDisplay:10.37,2013-05-05 14:15:00,
2013-05-05 15:20:00,64.4,51.5,30.15,WSW,249,2.0,10.0,63,0.00,,,0.00,WeatherDisplay:10.37,2013-05-05 14:20:00,
2013-05-05 15:25:00,64.4,51.5,30.15,WSW,256,3.0,7.0,63,0.00,,,0.00,WeatherDisplay:10.37,2013-05-05 14:25:00,
2013-05-05 15:30:00,64.4,52.8,30.15,SW,230,2.0,10.0,66,0.00,,,0.00,WeatherDisplay:10.37,2013-05-05 14:30:00,
2013-05-05 15:35:00,64.2,52.6,30.15,SSW,201,6.0,12.0,66,0.00,,,0.00,WeatherDisplay:10.37,2013-05-05 14:35:00,
2013-05-05 15:40:00,64.0,52.8,30.15,SSW,203,3.0,9.0,67,0.00,,,0.00,WeatherDisplay:10.37,2013-05-05 14:40:00,
2013-05-05 15:45:00,64.0,52.0,30.15,SW,223,6.0,10.0,65,0.00,,,0.00,WeatherDisplay:10.37,2013-05-05 14:45:00,
2013-05-05 15:50:00,64.0,52.8,30.15,SW,222,3.0,7.0,67,0.00,,,0.00,WeatherDisplay:10.37,2013-05-05 14:50:00,
2013-05-05 15:55:00,64.0,52.4,30.15,SW,220,2.0,6.0,66,0.00,,,0.00,WeatherDisplay:10.37,2013-05-05 14:55:00,
2013-05-05 16:00:00,63.9,52.3,30.15,SW,215,3.0,9.0,66,0.00,,,0.00,WeatherDisplay:10.37,2013-05-05 15:00:00,
2013-05-05 16:05:00,63.6,52.0,30.14,SSW,198,1.0,6.0,66,0.00,,,0.00,WeatherDisplay:10.37,2013-05-05 15:05:00,
2013-05-05 16:10:00,63.7,52.5,30.15,SW,225,1.0,6.0,67,0.00,,,0.00,WeatherDisplay:10.37,2013-05-05 15:10:00,
2013-05-05 16:15:00,63.8,52.2,30.15,WSW,250,2.0,5.0,66,0.00,,,0.00,WeatherDisplay:10.37,2013-05-05 15:15:00,
2013-05-05 16:20:00,63.9,51.9,30.14,WSW,241,5.0,9.0,65,0.00,,,0.00,WeatherDisplay:10.37,2013-05-05 15:20:00,
2013-05-05 16:25:00,63.9,52.3,30.14,WSW,243,3.0,8.0,66,0.00,,,0.00,WeatherDisplay:10.37,2013-05-05 15:25:00,
2013-05-05 16:30:00,63.8,52.7,30.14,West,259,5.0,7.0,67,0.00,,,0.00,WeatherDisplay:10.37,2013-05-05 15:30:00,
2013-05-05 16:40:00,64.0,52.4,30.14,West,275,1.0,6.0,66,0.00,,,0.00,WeatherDisplay:10.37,2013-05-05 15:40:00,
2013-05-05 16:45:00,64.1,52.5,30.14,WSW,258,5.0,12.0,66,0.00,,,0.00,WeatherDisplay:10.37,2013-05-05 15:45:00,
2013-05-05 16:50:00,64.1,51.7,30.14,WSW,241,2.0,7.0,64,0.00,,,0.00,WeatherDisplay:10.37,2013-05-05 15:50:00,
2013-05-05 16:55:00,64.3,53.1,30.14,West,262,5.0,9.0,67,0.00,,,0.00,WeatherDisplay:10.37,2013-05-05 15:55:00,
2013-05-05 17:00:00,64.4,52.8,30.14,West,273,3.0,10.0,66,0.00,,,0.00,WeatherDisplay:10.37,2013-05-05 16:00:00,
2013-05-05 17:10:00,64.5,52.5,30.14,WSW,251,1.0,7.0,65,0.00,,,0.00,WeatherDisplay:10.37,2013-05-05 16:10:00,
2013-05-05 17:15:00,64.6,53.0,30.14,West,260,1.0,5.0,66,0.00,,,0.00,WeatherDisplay:10.37,2013-05-05 16:15:00,
2013-05-05 17:20:00,64.7,52.7,30.14,West,265,3.0,9.0,65,0.00,,,0.00,WeatherDisplay:10.37,2013-05-05 16:20:00,
2013-05-05 17:25:00,64.8,52.8,30.14,West,266,2.0,7.0,65,0.00,,,0.00,WeatherDisplay:10.37,2013-05-05 16:25:00,
2013-05-05 17:30:00,64.8,52.8,30.14,West,270,2.0,10.0,65,0.00,,,0.00,WeatherDisplay:10.37,2013-05-05 16:30:00,
2013-05-05 17:35:00,64.8,52.8,30.14,West,269,5.0,10.0,65,0.00,,,0.00,WeatherDisplay:10.37,2013-05-05 16:35:00,
2013-05-05 17:40:00,64.7,51.8,30.14,West,268,2.0,7.0,63,0.00,,,0.00,WeatherDisplay:10.37,2013-05-05 16:40:00,
2013-05-05 17:45:00,64.5,52.0,30.14,West,270,5.0,7.0,64,0.00,,,0.00,WeatherDisplay:10.37,2013-05-05 16:45:00,
2013-05-05 17:50:00,64.4,52.3,30.14,West,277,2.0,6.0,65,0.00,,,0.00,WeatherDisplay:10.37,2013-05-05 16:50:00,
2013-05-05 17:55:00,64.2,51.8,30.14,WNW,284,2.0,6.0,64,0.00,,,0.00,WeatherDisplay:10.37,2013-05-05 16:55:00,
2013-05-05 18:00:00,64.1,52.1,30.14,WNW,286,3.0,6.0,65,0.00,,,0.00,WeatherDisplay:10.37,2013-05-05 17:00:00,
2013-05-05 18:05:00,64.0,52.0,30.14,WNW,286,5.0,6.0,65,0.00,,,0.00,WeatherDisplay:10.37,2013-05-05 17:05:00,
2013-05-05 18:10:00,63.9,52.3,30.14,WNW,282,1.0,6.0,66,0.00,,,0.00,WeatherDisplay:10.37,2013-05-05 17:10:00,
2013-05-05 18:15:00,63.7,52.1,30.14,West,279,2.0,7.0,66,0.00,,,0.00,WeatherDisplay:10.37,2013-05-05 17:15:00,
2013-05-05 18:25:00,63.4,51.9,30.14,West,276,2.0,5.0,66,0.00,,,0.00,WeatherDisplay:10.37,2013-05-05 17:25:00,
2013-05-05 18:30:00,63.3,51.7,30.14,West,273,1.0,3.0,66,0.00,,,0.00,WeatherDisplay:10.37,2013-05-05 17:30:00,
2013-05-05 18:35:00,63.1,52.0,30.14,WSW,248,3.0,5.0,67,0.00,,,0.00,WeatherDisplay:10.37,2013-05-05 17:35:00,
2013-05-05 18:40:00,63.0,52.3,30.14,WSW,244,3.0,7.0,68,0.00,,,0.00,WeatherDisplay:10.37,2013-05-05 17:40:00,
2013-05-05 18:45:00,62.8,51.7,30.14,WSW,251,2.0,7.0,67,0.00,,,0.00,WeatherDisplay:10.37,2013-05-05 17:45:00,
2013-05-05 18:50:00,62.6,51.5,30.14,WSW,258,3.0,6.0,67,0.00,,,0.00,WeatherDisplay:10.37,2013-05-05 17:50:00,
2013-05-05 18:55:00,62.4,51.7,30.14,WSW,257,2.0,5.0,68,0.00,,,0.00,WeatherDisplay:10.37,2013-05-05 17:55:00,
2013-05-05 19:00:00,62.3,52.0,30.14,WSW,252,2.0,6.0,69,0.00,,,0.00,WeatherDisplay:10.37,2013-05-05 18:00:00,
2013-05-05 19:10:00,62.0,51.7,30.14,WSW,247,0.0,5.0,69,0.00,,,0.00,WeatherDisplay:10.37,2013-05-05 18:10:00,
2013-05-05 19:15:00,62.0,51.7,30.14,WSW,247,2.0,5.0,69,0.00,,,0.00,WeatherDisplay:10.37,2013-05-05 18:15:00,
2013-05-05 19:20:00,61.9,52.0,30.14,WSW,247,1.0,4.0,70,0.00,,,0.00,WeatherDisplay:10.37,2013-05-05 18:20:00,
2013-05-05 19:25:00,61.9,51.6,30.14,WSW,248,3.0,6.0,69,0.00,,,0.00,WeatherDisplay:10.37,2013-05-05 18:25:00,
2013-05-05 19:30:00,61.8,51.9,30.14,WSW,247,2.0,6.0,70,0.00,,,0.00,WeatherDisplay:10.37,2013-05-05 18:30:00,
2013-05-05 19:35:00,61.7,51.8,30.14,WSW,247,2.0,7.0,70,0.00,,,0.00,WeatherDisplay:10.37,2013-05-05 18:35:00,
2013-05-05 19:40:00,61.5,51.6,30.14,WSW,251,0.0,7.0,70,0.00,,,0.00,WeatherDisplay:10.37,2013-05-05 18:40:00,
2013-05-05 19:45:00,61.3,51.4,30.14,WSW,244,3.0,6.0,70,0.00,,,0.00,WeatherDisplay:10.37,2013-05-05 18:45:00,
2013-05-05 19:55:00,60.8,51.3,30.14,SW,225,2.0,6.0,71,0.00,,,0.00,WeatherDisplay:10.37,2013-05-05 18:55:00,
2013-05-05 20:00:00,60.5,51.4,30.14,SW,225,1.0,5.0,72,0.00,,,0.00,WeatherDisplay:10.37,2013-05-05 19:00:00,
2013-05-05 20:05:00,60.2,51.1,30.14,SW,224,3.0,6.0,72,0.00,,,0.00,WeatherDisplay:10.37,2013-05-05 19:05:00,
2013-05-05 20:10:00,59.8,51.1,30.15,SW,222,2.0,7.0,73,0.00,,,0.00,WeatherDisplay:10.37,2013-05-05 19:10:00,
2013-05-05 20:15:00,59.4,50.7,30.15,SW,221,1.0,7.0,73,0.00,,,0.00,WeatherDisplay:10.37,2013-05-05 19:15:00,
2013-05-05 20:20:00,59.0,50.7,30.15,SW,227,2.0,7.0,74,0.00,,,0.00,WeatherDisplay:10.37,2013-05-05 19:20:00,
2013-05-05 20:30:00,58.4,50.5,30.14,SW,232,1.0,5.0,75,0.00,,,0.00,WeatherDisplay:10.37,2013-05-05 19:30:00,
2013-05-05 20:35:00,58.1,50.2,30.14,SW,233,1.0,3.0,75,0.00,,,0.00,WeatherDisplay:10.37,2013-05-05 19:35:00,
2013-05-05 20:45:00,57.5,50.0,30.14,SW,233,0.0,3.0,76,0.00,,,0.00,WeatherDisplay:10.37,2013-05-05 19:45:00,
2013-05-05 20:50:00,57.2,49.7,30.15,SW,233,0.0,1.0,76,0.00,,,0.00,WeatherDisplay:10.37,2013-05-05 19:50:00,
2013-05-05 20:55:00,56.7,49.2,30.15,SW,233,0.0,2.0,76,0.00,,,0.00,WeatherDisplay:10.37,2013-05-05 19:55:00,
2013-05-05 21:00:00,55.9,48.4,30.15,SW,233,0.0,2.0,76,0.00,,,0.00,WeatherDisplay:10.37,2013-05-05 20:00:00,
2013-05-05 21:05:00,55.1,48.4,30.15,SW,233,1.0,2.0,78,0.00,,,0.00,WeatherDisplay:10.37,2013-05-05 20:05:00,
2013-05-05 21:10:00,54.3,48.0,30.15,SW,233,0.0,2.0,79,0.00,,,0.00,WeatherDisplay:10.37,2013-05-05 20:10:00,
2013-05-05 21:15:00,53.7,47.3,30.15,SW,233,0.0,1.0,79,0.00,,,0.00,WeatherDisplay:10.37,2013-05-05 20:15:00,
2013-05-05 21:20:00,53.1,47.4,30.15,SW,233,0.0,3.0,81,0.00,,,0.00,WeatherDisplay:10.37,2013-05-05 20:20:00,
2013-05-05 21:25:00,52.4,46.7,30.15,SW,233,1.0,2.0,81,0.00,,,0.00,WeatherDisplay:10.37,2013-05-05 20:25:00,
2013-05-05 21:30:00,51.6,46.6,30.15,SW,233,1.0,3.0,83,0.00,,,0.00,WeatherDisplay:10.37,2013-05-05 20:30:00,
2013-05-05 21:35:00,51.1,46.7,30.15,SW,233,1.0,2.0,85,0.00,,,0.00,WeatherDisplay:10.37,2013-05-05 20:35:00,
2013-05-05 21:40:00,50.8,46.8,30.15,SW,233,0.0,4.0,86,0.00,,,0.00,WeatherDisplay:10.37,2013-05-05 20:40:00,
2013-05-05 21:45:00,50.5,46.5,30.15,SW,233,0.0,3.0,86,0.00,,,0.00,WeatherDisplay:10.37,2013-05-05 20:45:00,
2013-05-05 21:50:00,50.4,46.7,30.15,SW,233,0.0,1.0,87,0.00,,,0.00,WeatherDisplay:10.37,2013-05-05 20:50:00,
2013-05-05 21:55:00,50.3,46.6,30.15,SW,233,0.0,0.0,87,0.00,,,0.00,WeatherDisplay:10.37,2013-05-05 20:55:00,
2013-05-05 22:00:00,50.3,46.6,30.15,SW,233,0.0,1.0,87,0.00,,,0.00,WeatherDisplay:10.37,2013-05-05 21:00:00,
2013-05-05 22:10:00,50.1,46.4,30.16,SW,233,0.0,0.0,87,0.00,,,0.00,WeatherDisplay:10.37,2013-05-05 21:10:00,
2013-05-05 22:15:00,49.9,45.9,30.16,SW,233,0.0,0.0,86,0.00,,,0.00,WeatherDisplay:10.37,2013-05-05 21:15:00,
2013-05-05 22:20:00,49.6,45.9,30.16,SW,233,0.0,1.0,87,0.00,,,0.00,WeatherDisplay:10.37,2013-05-05 21:20:00,
2013-05-05 22:25:00,49.3,45.6,30.16,SW,233,2.0,3.0,87,0.00,,,0.00,WeatherDisplay:10.37,2013-05-05 21:25:00,
2013-05-05 22:30:00,49.1,45.7,30.16,SW,233,0.0,2.0,88,0.00,,,0.00,WeatherDisplay:10.37,2013-05-05 21:30:00,
2013-05-05 22:40:00,49.1,46.0,30.16,SW,233,0.0,3.0,89,0.00,,,0.00,WeatherDisplay:10.37,2013-05-05 21:40:00,
2013-05-05 22:45:00,49.2,46.1,30.16,SW,233,0.0,0.0,89,0.00,,,0.00,WeatherDisplay:10.37,2013-05-05 21:45:00,
2013-05-05 22:50:00,49.4,46.6,30.16,SW,233,1.0,2.0,90,0.00,,,0.00,WeatherDisplay:10.37,2013-05-05 21:50:00,
2013-05-05 22:55:00,49.7,46.9,30.16,SW,233,1.0,2.0,90,0.00,,,0.00,WeatherDisplay:10.37,2013-05-05 21:55:00,
2013-05-05 23:00:00,50.0,46.9,30.16,SW,233,1.0,2.0,89,0.00,,,0.00,WeatherDisplay:10.37,2013-05-05 22:00:00,
2013-05-05 23:05:00,50.3,46.9,30.16,SW,233,0.0,2.0,88,0.00,,,0.00,WeatherDisplay:10.37,2013-05-05 22:05:00,
2013-05-05 23:10:00,50.4,47.0,30.16,SW,233,0.0,1.0,88,0.00,,,0.00,WeatherDisplay:10.37,2013-05-05 22:10:00,
2013-05-05 23:15:00,50.4,46.7,30.16,SW,233,0.0,1.0,87,0.00,,,0.00,WeatherDisplay:10.37,2013-05-05 22:15:00,
2013-05-05 23:20:00,50.3,46.6,30.16,SW,233,0.0,1.0,87,0.00,,,0.00,WeatherDisplay:10.37,2013-05-05 22:20:00,
2013-05-05 23:25:00,50.1,46.1,30.16,SW,233,0.0,1.0,86,0.00,,,0.00,WeatherDisplay:10.37,2013-05-05 22:25:00,
2013-05-05 23:30:00,49.8,45.8,30.16,SW,233,0.0,0.0,86,0.00,,,0.00,WeatherDisplay:10.37,2013-05-05 22:30:00,
2013-05-05 23:40:00,49.1,45.1,30.16,SW,233,0.0,1.0,86,0.00,,,0.00,WeatherDisplay:10.37,2013-05-05 22:40:00,
2013-05-05 23:45:00,48.7,45.0,30.16,SW,233,1.0,2.0,87,0.00,,,0.00,WeatherDisplay:10.37,2013-05-05 22:45:00,
2013-05-05 23:50:00,48.3,44.9,30.16,SW,233,0.0,2.0,88,0.00,,,0.00,WeatherDisplay:10.37,2013-05-05 22:50:00,
2013-05-05 23:55:00,48.2,45.1,30.16,SW,233,1.0,2.0,89,0.00,,,0.00,WeatherDisplay:10.37,2013-05-05 22:55:00,